Terminal Aerodrome Forecast
Issued by NWS

Home | Current Version | Previous Version | Text Only | Print | Product List | Glossary On
Versions: 1 2 3 4 5 6 7 8 9 10 11 12 13 14 15 16 17 18 19 20 21
090
FTUS41 KCAR 061547 AAA
TAFBHB
TAF AMD
KBHB 061547Z 0616/0712 02010G20KT P6SM OVC018
     FM061700 03005KT P6SM BKN025
     FM061900 03004KT P6SM BKN040
     FM070200 11005KT 2SM BR SCT010=

USA.gov is the U.S. government's official web portal to all federal, state and local government web resources and services.